Time;durP1;ratioP1;P1;durP2;ratioP2;P2;SDS_P1;SDS_P2;PMS_P1;PMS_P2;Temp;Humidity;BMP_temperature;BMP_pressure;BME280_temperature;BME280_humidity;BME280_pressure;Samples;Min_cycle;Max_cycle;Signal;HPM_P1;HPM_P2
2023/01/02 00:00:54;;;;;;;4.05;2.10;;;;;;;12.83;72.45;98502.50;4200616;28;20089;-75
2023/01/02 00:02:55;;;;;;;3.17;2.17;;;;;;;12.77;72.79;98499.28;4200332;28;20047;-75
2023/01/02 00:04:56;;;;;;;5.53;2.50;;;;;;;12.63;74.83;98490.91;4198010;28;20082;-74
2023/01/02 00:06:56;;;;;;;2.88;1.90;;;;;;;12.69;74.29;98485.78;4200680;28;20032;-75
2023/01/02 00:08:57;;;;;;;4.53;2.13;;;;;;;12.72;72.50;98496.09;4201072;28;20036;-74
2023/01/02 00:10:57;;;;;;;4.30;2.03;;;;;;;12.63;74.19;98502.00;4199210;28;20369;-75
2023/01/02 00:12:57;;;;;;;4.30;2.13;;;;;;;12.67;73.02;98497.28;4201953;28;20062;-75
2023/01/02 00:14:58;;;;;;;6.82;2.10;;;;;;;12.82;72.18;98487.78;4200669;28;20512;-75
2023/01/02 00:16:58;;;;;;;6.75;2.15;;;;;;;12.83;71.27;98492.16;4203607;28;20206;-75
2023/01/02 00:18:58;;;;;;;4.00;2.13;;;;;;;12.82;71.81;98493.34;4199522;28;20132;-75
2023/01/02 00:21:04;;;;;;;4.63;2.70;;;;;;;12.73;72.79;98484.59;4202542;28;20072;-75
2023/01/02 00:23:04;;;;;;;4.72;2.13;;;;;;;12.87;72.13;98494.94;4198929;28;20074;-74
2023/01/02 00:25:05;;;;;;;2.75;1.98;;;;;;;12.88;72.40;98496.53;4200600;28;20257;-75
2023/01/02 00:27:05;;;;;;;3.55;1.77;;;;;;;12.80;72.21;98478.25;4202928;28;20076;-75
2023/01/02 00:29:06;;;;;;;4.80;2.33;;;;;;;12.75;73.18;98481.44;4201363;28;20083;-75
2023/01/02 00:31:08;;;;;;;5.88;2.40;;;;;;;12.84;71.35;98484.63;4200184;28;20090;-74
2023/01/02 00:33:09;;;;;;;3.17;1.90;;;;;;;12.87;72.33;98481.84;4199565;28;20315;-75
2023/01/02 00:35:09;;;;;;;3.67;2.15;;;;;;;12.97;70.76;98476.72;4201758;28;20120;-75
2023/01/02 00:37:09;;;;;;;6.00;2.03;;;;;;;12.96;71.21;98466.78;4201715;28;20156;-75
2023/01/02 00:39:10;;;;;;;6.85;2.20;;;;;;;12.89;70.71;98475.91;4200885;28;20386;-75
2023/01/02 00:41:10;;;;;;;3.92;1.88;;;;;;;12.92;70.73;98486.25;4202649;28;20082;-75
2023/01/02 00:43:10;;;;;;;3.55;1.92;;;;;;;12.91;71.02;98474.34;4200532;28;20458;-75
2023/01/02 00:45:11;;;;;;;3.45;2.75;;;;;;;12.99;70.55;98479.88;4199673;28;20040;-75
2023/01/02 00:47:11;;;;;;;4.38;2.30;;;;;;;13.03;71.47;98478.72;4200825;28;20028;-75
2023/01/02 00:49:11;;;;;;;2.97;1.98;;;;;;;12.96;72.06;98477.91;4199854;28;20044;-74
2023/01/02 00:51:12;;;;;;;4.20;2.05;;;;;;;13.05;69.34;98483.88;4198870;28;20101;-75
2023/01/02 00:53:12;;;;;;;4.40;2.05;;;;;;;13.10;69.90;98475.94;4201896;28;20834;-74
2023/01/02 00:55:12;;;;;;;4.68;2.13;;;;;;;13.04;70.62;98488.63;4201250;28;20032;-75
2023/01/02 00:57:13;;;;;;;7.03;2.08;;;;;;;13.01;71.86;98488.63;4199023;28;20130;-75
2023/01/02 00:59:13;;;;;;;5.28;2.22;;;;;;;12.91;71.39;98488.22;4200805;28;20101;-75
2023/01/02 01:01:13;;;;;;;2.97;1.90;;;;;;;12.86;71.93;98471.16;4200170;28;20232;-75
2023/01/02 01:03:14;;;;;;;3.45;1.88;;;;;;;12.81;72.26;98463.97;4198118;28;20040;-75
2023/01/02 01:05:14;;;;;;;3.97;1.80;;;;;;;12.87;71.25;98473.53;4201173;28;20334;-75
2023/01/02 01:07:15;;;;;;;6.57;2.40;;;;;;;12.94;70.17;98476.31;4199940;28;20405;-75
2023/01/02 01:09:15;;;;;;;3.78;1.90;;;;;;;12.97;70.29;98469.16;4201359;28;20056;-75
2023/01/02 01:11:16;;;;;;;4.50;2.35;;;;;;;12.93;70.27;98460.84;4199522;28;20412;-75
2023/01/02 01:13:17;;;;;;;4.10;2.05;;;;;;;12.91;72.01;98466.00;4200143;28;20032;-74
2023/01/02 01:15:17;;;;;;;2.58;1.88;;;;;;;12.96;70.00;98464.03;4199004;28;20047;-75
2023/01/02 01:17:17;;;;;;;3.30;1.98;;;;;;;12.90;70.51;98456.06;4201298;28;20464;-75
2023/01/02 01:19:18;;;;;;;5.50;2.20;;;;;;;12.99;70.06;98458.50;4200014;28;20078;-75
2023/01/02 01:21:25;;;;;;;4.80;2.13;;;;;;;12.97;71.62;98455.28;4200183;27;20870;-74
2023/01/02 01:23:25;;;;;;;6.72;2.17;;;;;;;12.95;70.06;98449.34;4187228;28;20396;-74
2023/01/02 01:25:26;;;;;;;4.20;1.95;;;;;;;12.99;70.00;98444.59;4184485;28;20032;-75
2023/01/02 01:27:26;;;;;;;3.53;1.85;;;;;;;12.98;69.72;98448.53;4186983;28;20330;-74
2023/01/02 01:29:26;;;;;;;4.80;2.45;;;;;;;12.98;69.99;98440.22;4188843;28;20165;-74
2023/01/02 01:31:27;;;;;;;4.88;2.15;;;;;;;12.85;71.71;98450.91;4187254;28;20056;-74
2023/01/02 01:33:29;;;;;;;4.50;1.95;;;;;;;12.80;70.68;98442.16;4187204;28;20052;-74
2023/01/02 01:35:29;;;;;;;3.60;2.38;;;;;;;12.78;71.16;98439.78;4187862;28;20151;-74
2023/01/02 01:37:29;;;;;;;4.93;2.40;;;;;;;12.82;71.83;98462.00;4182797;28;20155;-74
2023/01/02 01:39:30;;;;;;;3.50;2.00;;;;;;;12.79;71.95;98454.47;4183398;28;20052;-74
2023/01/02 01:41:30;;;;;;;3.53;1.60;;;;;;;12.87;70.59;98450.53;4185690;28;20351;-74
2023/01/02 01:43:51;;;;;;;4.10;1.77;;;;;;;12.96;69.29;98452.91;4185366;28;20147;-75
2023/01/02 01:45:51;;;;;;;4.57;2.13;;;;;;;13.09;69.37;98448.56;4183658;28;20509;-74
2023/01/02 01:47:55;;;;;;;4.43;2.40;;;;;;;13.09;70.44;98451.34;4183076;28;20103;-74
2023/01/02 01:50:06;;;;;;;5.30;2.38;;;;;;;13.01;70.26;98452.53;4189346;28;20059;-74
2023/01/02 01:52:15;;;;;;;4.15;2.20;;;;;;;12.97;71.06;98446.97;4183006;28;20200;-75
2023/01/02 01:54:21;;;;;;;2.90;1.83;;;;;;;12.94;71.03;98443.00;4182758;28;20033;-75
2023/01/02 01:56:22;;;;;;;3.20;2.20;;;;;;;12.83;71.53;98441.41;4182690;28;20064;-74
2023/01/02 01:58:27;;;;;;;4.45;2.28;;;;;;;12.81;70.96;98441.78;4183424;28;20040;-74
2023/01/02 02:00:29;;;;;;;5.43;2.00;;;;;;;12.82;71.09;98429.47;4185070;28;20044;-74
2023/01/02 02:02:31;;;;;;;4.78;2.20;;;;;;;12.79;70.49;98435.81;4185544;28;20058;-74
2023/01/02 02:04:31;;;;;;;5.30;2.65;;;;;;;12.74;72.36;98432.63;4182468;28;20091;-74
2023/01/02 02:06:32;;;;;;;5.38;2.25;;;;;;;12.75;71.28;98432.25;4184162;28;20488;-74
2023/01/02 02:09:16;;;;;;;4.82;2.25;;;;;;;12.74;71.11;98430.66;4182839;28;20044;-75
2023/01/02 02:11:17;;;;;;;4.53;2.25;;;;;;;12.75;69.93;98437.81;4172767;28;20219;-75
2023/01/02 02:13:18;;;;;;;3.90;2.38;;;;;;;12.83;70.07;98444.97;4182359;28;20254;-74
2023/01/02 02:15:25;;;;;;;7.43;2.40;;;;;;;12.80;70.78;98433.84;4182861;28;20518;-74
2023/01/02 02:18:02;;;;;;;5.40;2.10;;;;;;;12.79;70.00;98430.28;4183301;28;20051;-74
2023/01/02 02:20:23;;;;;;;3.38;2.10;;;;;;;12.72;70.86;98430.25;4181539;28;20063;-74
2023/01/02 02:22:41;;;;;;;4.10;2.03;;;;;;;12.72;70.00;98429.47;4182114;28;20114;-74
2023/01/02 02:24:57;;;;;;;3.03;1.58;;;;;;;12.84;69.97;98431.88;4182299;28;20381;-75
2023/01/02 02:27:07;;;;;;;4.65;2.10;;;;;;;12.82;69.79;98420.34;4184289;28;20052;-74
2023/01/02 02:29:24;;;;;;;3.08;1.95;;;;;;;12.81;70.42;98421.53;4188016;28;20759;-74
2023/01/02 02:31:41;;;;;;;3.75;1.80;;;;;;;12.75;70.39;98418.38;4181200;28;20523;-74
2023/01/02 02:33:58;;;;;;;3.85;2.00;;;;;;;12.80;69.81;98419.97;4171200;28;20041;-74
2023/01/02 02:36:29;;;;;;;3.40;2.20;;;;;;;12.81;69.92;98427.09;4171722;28;20159;-74
2023/01/02 02:38:48;;;;;;;4.85;2.15;;;;;;;12.90;68.63;98422.75;4170163;28;20067;-74
2023/01/02 02:41:16;;;;;;;3.53;2.03;;;;;;;12.95;68.35;98421.56;4171791;28;20427;-74
2023/01/02 02:43:41;;;;;;;4.10;2.08;;;;;;;12.85;69.20;98420.38;4171263;28;20187;-75
2023/01/02 02:46:10;;;;;;;6.95;2.33;;;;;;;12.84;68.43;98413.25;4172113;28;20049;-74
2023/01/02 02:48:19;;;;;;;4.55;2.28;;;;;;;12.79;70.05;98396.97;4171281;28;20470;-74
2023/01/02 02:50:34;;;;;;;3.50;2.33;;;;;;;12.74;69.38;98405.66;4170584;28;20064;-75
2023/01/02 02:52:42;;;;;;;3.95;2.08;;;;;;;12.78;69.03;98405.69;4171108;28;20044;-74
2023/01/02 02:54:52;;;;;;;5.78;1.95;;;;;;;12.70;69.93;98402.09;4171603;28;20098;-74
2023/01/02 02:56:55;;;;;;;4.97;2.15;;;;;;;12.63;70.47;98404.84;4171676;28;20099;-74
2023/01/02 02:58:56;;;;;;;5.63;2.30;;;;;;;12.64;69.27;98392.56;4171783;28;20086;-74
2023/01/02 03:01:06;;;;;;;3.60;1.88;;;;;;;12.62;69.50;98401.28;4169514;28;20049;-74
2023/01/02 03:03:21;;;;;;;4.00;2.13;;;;;;;12.61;68.52;98398.91;4169675;28;20087;-74
2023/01/02 03:05:29;;;;;;;6.70;2.40;;;;;;;12.68;68.67;98403.69;4174644;28;20045;-74
2023/01/02 03:07:45;;;;;;;5.63;2.72;;;;;;;12.75;67.93;98398.16;4175550;28;20045;-74
2023/01/02 03:10:07;;;;;;;3.65;2.15;;;;;;;12.69;68.21;98405.28;4171024;28;20052;-74
2023/01/02 03:12:16;;;;;;;3.83;1.98;;;;;;;12.76;67.62;98386.66;4186870;28;20706;-74
2023/01/02 03:14:29;;;;;;;3.53;1.80;;;;;;;12.79;67.84;98387.84;4188353;28;20031;-74
2023/01/02 03:16:36;;;;;;;7.53;2.28;;;;;;;12.75;68.84;98395.38;4189910;28;20489;-74
2023/01/02 03:18:49;;;;;;;5.00;2.20;;;;;;;12.89;66.65;98403.72;4187924;28;20456;-74
2023/01/02 03:21:04;;;;;;;;;;;;;;;12.88;67.75;98396.56;4188747;28;20048;-74
2023/01/02 03:23:10;;;;;;;4.13;2.00;;;;;;;12.90;66.14;98394.19;4186052;28;20426;-74
2023/01/02 03:25:13;;;;;;;5.72;2.25;;;;;;;12.95;66.20;98377.13;4192181;28;20071;-74
2023/01/02 03:27:18;;;;;;;5.35;2.30;;;;;;;13.07;66.50;98393.41;4187970;28;20041;-75
2023/01/02 03:29:28;;;;;;;4.05;1.88;;;;;;;13.06;65.27;98397.38;4188031;28;20086;-74
2023/01/02 03:31:33;;;;;;;4.72;2.45;;;;;;;13.08;64.94;98399.78;4186244;28;20048;-74
2023/01/02 03:33:38;;;;;;;3.95;2.00;;;;;;;12.96;67.63;98394.59;4191444;28;20098;-74
2023/01/02 03:35:47;;;;;;;3.30;1.92;;;;;;;12.99;65.35;98391.00;4187585;28;20511;-74
2023/01/02 03:37:51;;;;;;;3.40;2.00;;;;;;;13.05;64.28;98395.78;4197841;28;20052;-74
2023/01/02 03:39:55;;;;;;;5.22;2.00;;;;;;;13.05;65.32;98383.88;4186530;28;20535;-74
2023/01/02 03:42:08;;;;;;;6.30;2.20;;;;;;;13.10;63.91;98384.28;4189603;28;20070;-74
2023/01/02 03:44:11;;;;;;;6.45;2.20;;;;;;;13.13;64.31;98385.47;4191462;28;20520;-74
2023/01/02 03:46:35;;;;;;;;;;;;;;;13.04;66.60;98380.31;4188073;28;20034;-74
2023/01/02 03:48:56;;;;;;;6.30;2.20;;;;;;;12.99;65.37;98385.47;4177746;28;19948;-74
2023/01/02 03:50:59;;;;;;;6.93;1.95;;;;;;;13.05;65.70;98381.09;4187292;28;20098;-74
2023/01/02 03:53:00;;;;;;;3.60;2.00;;;;;;;13.05;64.00;98376.34;4192565;28;20410;-74
2023/01/02 03:55:02;;;;;;;5.03;2.08;;;;;;;13.01;64.72;98383.91;4190270;28;20053;-74
2023/01/02 03:57:11;;;;;;;5.07;1.80;;;;;;;12.92;67.08;98384.28;4188706;28;20041;-74
2023/01/02 03:59:40;;;;;;;4.97;2.33;;;;;;;12.87;65.03;98392.22;4186159;28;20035;-75
2023/01/02 04:01:52;;;;;;;5.45;2.10;;;;;;;12.72;66.46;98385.03;4169617;28;20051;-74
2023/01/02 04:04:03;;;;;;;5.05;2.10;;;;;;;12.76;65.72;98396.97;4186390;28;20088;-75
2023/01/02 04:06:13;;;;;;;4.75;1.80;;;;;;;12.80;64.71;98387.44;4186311;28;20045;-74
2023/01/02 04:08:21;;;;;;;4.50;2.00;;;;;;;12.88;64.97;98400.13;4186676;28;20079;-74
2023/01/02 04:10:22;;;;;;;3.58;2.08;;;;;;;12.82;68.13;98398.13;4186854;28;20125;-74
2023/01/02 04:12:24;;;;;;;2.13;1.60;;;;;;;12.82;65.28;98387.03;4185564;28;20116;-74
2023/01/02 04:14:33;;;;;;;4.88;2.30;;;;;;;12.75;68.33;98396.16;4186747;28;20450;-74
2023/01/02 04:16:37;;;;;;;7.32;2.35;;;;;;;12.79;65.41;98405.28;4188054;28;20334;-74
2023/01/02 04:18:53;;;;;;;5.40;2.28;;;;;;;12.78;65.85;98391.81;4186857;28;20048;-75
2023/01/02 04:21:00;;;;;;;9.13;2.63;;;;;;;12.88;64.64;98389.03;4185717;28;20044;-75
2023/01/02 04:23:28;;;;;;;3.58;2.03;;;;;;;12.84;66.93;98396.59;4185038;28;20044;-74
2023/01/02 04:25:40;;;;;;;3.20;2.25;;;;;;;12.79;65.23;98399.72;4186614;28;20037;-74
2023/01/02 04:27:49;;;;;;;5.50;1.95;;;;;;;12.77;67.43;98404.91;4189205;28;20047;-75
2023/01/02 04:29:50;;;;;;;3.35;1.80;;;;;;;12.74;67.32;98402.88;4185841;28;20094;-74
2023/01/02 04:32:16;;;;;;;5.75;2.30;;;;;;;12.63;66.51;98400.09;4187165;28;20044;-75
2023/01/02 04:34:18;;;;;;;5.47;2.25;;;;;;;12.62;66.29;98398.53;4155023;28;20381;-75
2023/01/02 04:36:18;;;;;;;3.70;1.92;;;;;;;12.65;66.29;98402.47;4186178;28;20501;-74
2023/01/02 04:38:19;;;;;;;4.07;2.30;;;;;;;12.71;66.72;98386.25;4187770;28;20036;-74
2023/01/02 04:40:29;;;;;;;3.45;1.80;;;;;;;12.74;68.30;98391.00;4185901;28;20089;-74
2023/01/02 04:42:30;;;;;;;5.75;2.00;;;;;;;12.63;67.68;98388.22;4189113;28;20131;-74
2023/01/02 04:44:30;;;;;;;5.57;2.53;;;;;;;12.67;65.26;98394.56;4186312;28;20500;-74
2023/01/02 04:46:31;;;;;;;3.85;1.60;;;;;;;12.76;65.41;98381.09;4185920;28;20087;-74
2023/01/02 04:48:31;;;;;;;5.13;1.80;;;;;;;12.92;64.73;98384.28;4186514;28;20064;-74
2023/01/02 04:50:31;;;;;;;5.95;2.00;;;;;;;12.91;65.48;98398.56;4185078;28;20049;-74
2023/01/02 04:52:32;;;;;;;3.35;2.10;;;;;;;12.83;67.34;98383.88;4185712;28;20036;-74
2023/01/02 04:54:32;;;;;;;5.32;2.30;;;;;;;12.73;65.58;98387.44;4186121;28;20097;-74
2023/01/02 04:56:33;;;;;;;4.97;2.00;;;;;;;12.80;64.68;98383.88;4186489;28;20419;-74
2023/01/02 04:58:33;;;;;;;4.40;1.92;;;;;;;12.81;67.79;98379.91;4186169;28;20764;-74
2023/01/02 05:00:33;;;;;;;3.22;1.70;;;;;;;12.75;66.09;98389.84;4185926;28;20385;-74
2023/01/02 05:02:37;;;;;;;4.25;1.88;;;;;;;12.71;65.85;98375.13;4185219;28;20177;-75
2023/01/02 05:04:38;;;;;;;4.22;2.65;;;;;;;12.77;64.64;98393.00;4192236;28;20040;-74
2023/01/02 05:06:38;;;;;;;6.35;2.25;;;;;;;12.82;64.47;98385.06;4185661;28;20051;-74
2023/01/02 05:08:39;;;;;;;3.35;1.67;;;;;;;12.80;64.73;98404.09;4185718;28;20078;-74
2023/01/02 05:10:39;;;;;;;7.93;2.00;;;;;;;12.92;64.05;98395.41;4189424;28;20441;-74
2023/01/02 05:12:39;;;;;;;5.22;1.98;;;;;;;12.94;64.08;98397.78;4185301;28;20124;-74
2023/01/02 05:14:40;;;;;;;5.93;1.80;;;;;;;12.89;64.13;98393.38;4193077;28;20063;-74
2023/01/02 05:16:40;;;;;;;5.93;2.35;;;;;;;12.91;63.45;98399.38;4190384;28;20049;-74
2023/01/02 05:18:40;;;;;;;5.40;2.25;;;;;;;12.96;64.04;98397.38;4185988;28;20053;-74
2023/01/02 05:20:41;;;;;;;5.55;2.10;;;;;;;12.89;64.40;98389.81;4186502;28;20094;-74
2023/01/02 05:25:01;;;;;;;4.40;1.70;;;;;;;12.80;65.79;98383.88;4186580;28;20177;-74
2023/01/02 05:27:02;;;;;;;6.65;2.22;;;;;;;12.73;65.41;98376.31;4189544;28;20748;-74
2023/01/02 05:29:02;;;;;;;6.57;2.00;;;;;;;12.68;64.42;98368.41;4184572;28;20063;-74
2023/01/02 05:31:02;;;;;;;3.88;1.75;;;;;;;12.73;63.72;98370.78;4185149;28;20053;-74
2023/01/02 05:33:03;;;;;;;5.53;2.35;;;;;;;12.77;64.38;98379.13;4187333;28;20045;-74
2023/01/02 05:35:03;;;;;;;2.83;2.20;;;;;;;12.84;63.96;98399.34;4185819;28;20144;-73
2023/01/02 05:37:04;;;;;;;4.80;2.00;;;;;;;12.87;63.26;98406.09;4185480;28;20366;-73
2023/01/02 05:39:08;;;;;;;3.10;1.63;;;;;;;12.93;63.57;98408.09;4190599;28;20043;-73
2023/01/02 05:41:09;;;;;;;3.67;1.92;;;;;;;12.96;63.11;98414.03;4184947;28;20049;-73
2023/01/02 05:43:09;;;;;;;3.63;1.73;;;;;;;12.96;63.94;98411.25;4185972;28;20033;-73
2023/01/02 05:45:09;;;;;;;4.38;1.92;;;;;;;12.94;63.75;98429.09;4185101;28;20040;-75
2023/01/02 05:47:10;;;;;;;3.20;2.00;;;;;;;12.92;63.64;98422.38;4190878;28;20041;-73
2023/01/02 05:49:11;;;;;;;6.93;2.35;;;;;;;12.91;63.40;98424.34;4189126;28;20287;-73
2023/01/02 05:51:14;;;;;;;5.35;2.00;;;;;;;12.83;64.75;98421.97;4184730;28;20557;-73
2023/01/02 05:53:16;;;;;;;2.88;2.00;;;;;;;12.80;63.73;98425.50;4185028;28;20040;-73
2023/01/02 05:55:17;;;;;;;5.43;2.00;;;;;;;12.90;63.49;98427.50;4109432;28;20431;-73
2023/01/02 05:57:17;;;;;;;5.07;1.92;;;;;;;12.93;63.53;98426.75;4215366;27;20214;-73
2023/01/02 05:59:17;;;;;;;4.60;2.10;;;;;;;12.93;63.38;98443.41;4222832;27;20036;-74
2023/01/02 06:01:21;;;;;;;3.92;2.08;;;;;;;12.91;62.95;98432.69;4222423;27;20048;-73
2023/01/02 06:03:21;;;;;;;4.18;1.80;;;;;;;12.92;63.16;98428.72;4223146;27;20032;-73
2023/01/02 06:05:21;;;;;;;4.38;1.65;;;;;;;12.93;62.84;98437.84;4220557;27;20379;-73
2023/01/02 06:07:22;;;;;;;4.60;1.88;;;;;;;12.91;62.85;98426.34;4226871;27;20110;-73
2023/01/02 06:09:22;;;;;;;3.08;2.03;;;;;;;12.87;64.18;98426.31;4225987;27;20039;-73
2023/01/02 06:11:22;;;;;;;5.90;2.17;;;;;;;12.84;63.02;98427.13;4228448;27;20445;-73
2023/01/02 06:13:23;;;;;;;8.07;2.00;;;;;;;12.82;63.03;98437.81;4228066;27;20040;-74
2023/01/02 06:15:23;;;;;;;3.78;2.03;;;;;;;12.80;62.88;98440.19;4225016;27;20039;-73
2023/01/02 06:17:24;;;;;;;4.20;2.03;;;;;;;12.79;62.89;98426.69;4223316;27;20294;-73
2023/01/02 06:19:24;;;;;;;5.63;2.08;;;;;;;12.77;63.10;98434.63;4227049;27;20239;-73
2023/01/02 06:21:24;;;;;;;3.28;1.85;;;;;;;12.72;65.96;98435.81;4223722;27;20051;-73
2023/01/02 06:23:25;;;;;;;5.57;2.15;;;;;;;12.73;63.26;98434.63;4224497;27;20035;-73
2023/01/02 06:25:25;;;;;;;6.45;2.22;;;;;;;12.82;62.67;98439.78;4221449;27;20089;-73
2023/01/02 06:27:25;;;;;;;5.47;2.03;;;;;;;12.89;63.10;98448.94;4225113;27;20039;-73
2023/01/02 06:29:26;;;;;;;3.40;1.48;;;;;;;12.93;63.63;98451.72;4227460;27;20300;-73
2023/01/02 06:31:28;;;;;;;3.80;1.77;;;;;;;12.93;61.59;98452.53;4225641;27;20048;-73
2023/01/02 06:33:29;;;;;;;4.30;2.10;;;;;;;12.94;61.44;98436.66;4226754;27;20090;-76
2023/01/02 06:35:30;;;;;;;3.35;1.80;;;;;;;12.99;61.10;98443.78;4224282;27;20035;-73
2023/01/02 06:37:30;;;;;;;3.13;1.98;;;;;;;13.04;62.31;98437.84;4224450;27;20689;-73
2023/01/02 06:39:31;;;;;;;6.35;2.08;;;;;;;13.05;61.96;98444.97;4225005;27;20531;-73
2023/01/02 06:41:32;;;;;;;5.35;1.73;;;;;;;13.12;60.68;98453.31;4226314;27;20299;-73
2023/01/02 06:43:33;;;;;;;5.05;2.10;;;;;;;13.16;60.53;98449.38;4224773;27;20491;-73
2023/01/02 06:45:33;;;;;;;6.38;1.80;;;;;;;13.11;62.12;98446.19;4221250;27;20171;-73
2023/01/02 06:47:33;;;;;;;7.28;1.80;;;;;;;13.17;60.52;98448.19;4232983;27;20073;-73
2023/01/02 06:49:34;;;;;;;6.55;1.92;;;;;;;13.23;60.64;98450.56;4236373;27;20042;-73
2023/01/02 06:51:34;;;;;;;6.68;1.90;;;;;;;13.17;60.11;98442.63;4236604;27;20069;-73
2023/01/02 06:53:37;;;;;;;8.15;1.75;;;;;;;13.11;61.44;98440.63;4225425;27;20180;-73
2023/01/02 06:55:38;;;;;;;5.80;1.95;;;;;;;13.12;61.77;98440.22;4221334;27;20031;-73
2023/01/02 06:57:38;;;;;;;7.50;2.22;;;;;;;13.10;60.70;98458.50;4221753;27;20489;-73
2023/01/02 06:59:38;;;;;;;3.40;1.88;;;;;;;13.11;61.21;98446.97;4227914;27;20040;-73
2023/01/02 07:01:39;;;;;;;3.50;1.95;;;;;;;13.11;61.02;98440.63;4229290;27;20501;-73
2023/01/02 07:03:39;;;;;;;12.38;2.22;;;;;;;13.12;61.06;98447.78;4226535;27;20044;-73
2023/01/02 07:05:40;;;;;;;6.38;2.10;;;;;;;13.13;61.07;98443.81;4221125;27;20036;-73
2023/01/02 07:07:40;;;;;;;6.43;2.40;;;;;;;13.11;61.21;98458.09;4221274;27;20078;-73
2023/01/02 07:09:41;;;;;;;7.63;2.10;;;;;;;13.09;60.88;98452.16;4225413;27;20058;-73
2023/01/02 07:11:41;;;;;;;8.68;2.28;;;;;;;13.02;61.88;98457.69;4226781;27;20040;-73
2023/01/02 07:13:42;;;;;;;2.38;1.45;;;;;;;12.93;61.88;98466.41;4229771;27;20313;-74
2023/01/02 07:15:43;;;;;;;4.88;1.88;;;;;;;12.92;62.25;98459.25;4223398;27;20394;-74
2023/01/02 07:17:43;;;;;;;11.68;2.55;;;;;;;12.98;62.32;98461.63;4234913;27;20126;-73
2023/01/02 07:19:43;;;;;;;3.78;1.70;;;;;;;12.96;63.21;98469.56;4227532;27;20247;-73
2023/01/02 07:21:44;;;;;;;4.35;2.00;;;;;;;12.92;62.60;98464.03;4221167;27;20117;-73
2023/01/02 07:23:44;;;;;;;4.55;1.75;;;;;;;12.88;62.73;98458.44;4220180;27;20032;-73
2023/01/02 07:25:51;;;;;;;5.78;2.08;;;;;;;12.87;61.76;98459.63;4221366;27;20043;-73
2023/01/02 07:27:51;;;;;;;5.47;2.00;;;;;;;12.94;61.37;98461.63;4220217;27;20115;-73
2023/01/02 07:29:52;;;;;;;10.75;2.25;;;;;;;12.93;61.81;98457.28;4228911;27;20482;-73
2023/01/02 07:31:52;;;;;;;5.35;1.75;;;;;;;12.91;61.09;98449.34;4237308;27;20940;-73
2023/01/02 07:33:52;;;;;;;3.83;2.35;;;;;;;12.93;61.47;98460.06;4220481;27;20039;-73
2023/01/02 07:36:01;;;;;;;5.18;1.60;;;;;;;12.94;61.46;98458.88;4221306;27;20055;-73
2023/01/02 07:38:01;;;;;;;3.95;2.00;;;;;;;12.87;61.96;98470.75;4220687;27;20059;-73
2023/01/02 07:40:01;;;;;;;6.80;1.73;;;;;;;12.96;60.84;98464.81;4220710;27;20023;-73
2023/01/02 07:42:02;;;;;;;5.55;1.85;;;;;;;12.97;61.75;98468.38;4221076;27;20039;-73
2023/01/02 07:44:02;;;;;;;5.00;1.73;;;;;;;12.94;61.11;98461.63;4220281;27;20490;-73
2023/01/02 07:46:03;;;;;;;3.50;1.80;;;;;;;13.01;61.15;98469.19;4220809;27;20747;-73
2023/01/02 07:48:04;;;;;;;5.50;2.20;;;;;;;13.04;60.67;98468.41;4221261;27;20118;-74
2023/01/02 07:50:04;;;;;;;7.97;1.90;;;;;;;13.04;62.67;98468.41;4230838;27;20553;-73
2023/01/02 07:52:09;;;;;;;4.45;2.00;;;;;;;13.06;60.24;98475.13;4227699;27;20406;-73
2023/01/02 07:54:09;;;;;;;3.58;1.88;;;;;;;13.08;61.45;98478.34;4220301;27;20439;-73
2023/01/02 07:56:09;;;;;;;6.45;2.17;;;;;;;13.05;60.45;98481.88;4220656;27;20322;-73
2023/01/02 07:58:10;;;;;;;7.75;2.15;;;;;;;13.05;60.39;98490.22;4220897;27;20520;-73
2023/01/02 08:00:11;;;;;;;4.18;1.80;;;;;;;12.98;62.75;98475.53;4225472;27;20134;-73
2023/01/02 08:02:11;;;;;;;4.20;1.60;;;;;;;12.98;61.04;98492.19;4227135;27;20784;-73
2023/01/02 08:04:11;;;;;;;6.28;2.15;;;;;;;13.04;60.33;98493.41;4219933;27;20039;-73
2023/01/02 08:06:14;;;;;;;5.88;2.00;;;;;;;13.00;60.83;98490.63;4220852;27;20058;-73
2023/01/02 08:08:14;;;;;;;5.90;1.90;;;;;;;12.98;61.04;98484.66;4220245;27;20061;-73
2023/01/02 08:10:15;;;;;;;12.77;2.10;;;;;;;12.96;61.44;98494.56;4226992;27;20020;-72
2023/01/02 08:12:15;;;;;;;4.40;1.92;;;;;;;12.97;61.20;98498.94;4235914;27;20103;-73
2023/01/02 08:14:15;;;;;;;4.30;1.70;;;;;;;12.91;61.60;98485.44;4234664;27;20030;-76
2023/01/02 08:16:18;;;;;;;6.22;2.20;;;;;;;12.92;61.23;98489.81;4224872;27;20039;-73
2023/01/02 08:18:18;;;;;;;;;;;;;;;13.03;60.86;98489.03;4220739;27;20085;-73
2023/01/02 08:20:18;;;;;;;6.00;2.42;;;;;;;13.07;60.87;98478.72;4220242;27;20424;-73
2023/01/02 08:22:19;;;;;;;4.07;2.00;;;;;;;13.02;60.80;98468.78;4221627;27;20107;-73
2023/01/02 08:24:19;;;;;;;4.50;1.85;;;;;;;13.03;60.93;98472.38;4234631;27;20424;-73
2023/01/02 08:26:20;;;;;;;10.30;2.40;;;;;;;12.93;62.53;98474.72;4236105;27;20478;-73
2023/01/02 08:28:20;;;;;;;7.10;2.25;;;;;;;12.98;61.72;98476.31;4235762;27;20035;-73
2023/01/02 08:30:20;;;;;;;7.38;2.47;;;;;;;12.99;61.59;98468.78;4233461;27;20531;-76
2023/01/02 08:32:21;;;;;;;3.00;1.90;;;;;;;12.97;60.92;98473.94;4235971;27;20051;-73
2023/01/02 08:34:21;;;;;;;3.55;1.88;;;;;;;13.00;61.07;98473.16;4235019;27;20510;-73
2023/01/02 08:36:21;;;;;;;5.55;2.20;;;;;;;13.00;61.91;98459.28;4235934;27;20096;-73
2023/01/02 08:38:22;;;;;;;6.85;1.90;;;;;;;12.97;62.23;98460.84;4235110;27;20092;-73
2023/01/02 08:40:22;;;;;;;5.45;2.83;;;;;;;12.97;62.10;98455.28;4225940;27;20447;-73
2023/01/02 08:42:23;;;;;;;4.75;2.67;;;;;;;12.96;60.90;98444.59;4219188;27;20036;-74
2023/01/02 08:44:23;;;;;;;14.05;3.00;;;;;;;12.97;61.69;98458.06;4219442;27;20410;-73
2023/01/02 08:46:23;;;;;;;6.85;3.17;;;;;;;13.02;60.80;98466.03;4220493;27;20388;-73
2023/01/02 08:48:24;;;;;;;4.63;2.50;;;;;;;13.03;63.27;98469.59;4228644;27;20054;-74
2023/01/02 08:50:24;;;;;;;6.80;2.72;;;;;;;13.07;60.84;98479.50;4232007;27;20122;-73
2023/01/02 08:52:25;;;;;;;4.07;2.30;;;;;;;13.12;61.40;98473.56;4218214;28;20312;-73
2023/01/02 08:54:25;;;;;;;6.32;2.30;;;;;;;13.13;60.37;98479.91;4219610;27;20195;-73
2023/01/02 08:56:28;;;;;;;5.63;2.45;;;;;;;13.19;60.57;98486.69;4219434;27;20096;-74
2023/01/02 08:58:28;;;;;;;7.53;2.65;;;;;;;13.26;60.00;98497.03;4220968;27;20039;-73
2023/01/02 09:00:28;;;;;;;5.72;2.35;;;;;;;13.24;60.69;98500.22;4236384;27;20817;-73
2023/01/02 09:02:29;;;;;;;4.78;2.55;;;;;;;13.22;60.20;98494.25;4233592;27;20467;-73
2023/01/02 09:04:29;;;;;;;9.88;2.30;;;;;;;13.26;60.24;98499.81;4234857;27;20512;-73
2023/01/02 09:06:31;;;;;;;5.75;2.20;;;;;;;13.34;60.43;98504.97;4225668;27;20124;-74
2023/01/02 09:08:32;;;;;;;4.22;1.73;;;;;;;13.38;59.24;98497.44;4220065;27;20066;-73
2023/01/02 09:10:32;;;;;;;5.32;2.22;;;;;;;13.45;58.98;98500.22;4219868;27;20467;-73
2023/01/02 09:12:32;;;;;;;4.60;1.75;;;;;;;13.45;60.63;98496.66;4218620;27;20067;-73
2023/01/02 09:14:33;;;;;;;5.20;2.25;;;;;;;13.36;62.32;98501.81;4219984;27;20047;-73
2023/01/02 09:16:33;;;;;;;4.85;2.03;;;;;;;13.34;62.06;98490.31;4224032;27;20035;-73
2023/01/02 09:18:34;;;;;;;4.97;2.05;;;;;;;13.31;60.27;98496.63;4234633;27;20425;-73
2023/01/02 09:20:39;;;;;;;4.45;1.98;;;;;;;13.36;62.09;98496.25;4223424;27;20299;-73
2023/01/02 09:22:39;;;;;;;9.60;1.95;;;;;;;13.45;60.13;98508.56;4222147;27;20063;-73
2023/01/02 09:24:40;;;;;;;5.63;2.20;;;;;;;13.49;60.06;98503.81;4223147;27;20115;-73
2023/01/02 09:26:41;;;;;;;7.10;2.13;;;;;;;13.57;59.94;98512.94;4219099;27;20067;-73
2023/01/02 09:28:41;;;;;;;4.35;2.17;;;;;;;13.60;60.29;98511.34;4219506;27;20055;-73
2023/01/02 09:30:42;;;;;;;4.18;2.60;;;;;;;13.66;59.76;98507.78;4219646;27;20119;-73
2023/01/02 09:32:42;;;;;;;4.47;1.95;;;;;;;13.71;59.14;98506.56;4219093;27;20054;-73
2023/01/02 09:34:49;;;;;;;6.90;2.40;;;;;;;13.73;59.15;98513.31;4219673;27;20745;-73
2023/01/02 09:36:49;;;;;;;5.63;1.90;;;;;;;13.76;58.57;98498.63;4222940;27;20105;-73
2023/01/02 09:38:54;;;;;;;10.45;2.63;;;;;;;13.82;58.08;98514.88;4234983;27;20078;-73
2023/01/02 09:40:56;;;;;;;8.85;2.25;;;;;;;13.82;58.15;98520.44;4234721;27;20040;-73
2023/01/02 09:42:58;;;;;;;5.20;2.03;;;;;;;13.88;57.67;98502.97;4225255;27;20048;-73
2023/01/02 09:45:02;;;;;;;3.75;2.00;;;;;;;13.89;58.44;98501.78;4229487;27;20286;-73